sensor_id;sensor_type;location;lat;lon;timestamp;pressure;altitude;pressure_sealevel;temperature;humidity
15932;BME280;8065;49.520;11.284;2024-03-23T00:53:28;96734.91;;;13.92;68.73
15932;BME280;8065;49.520;11.284;2024-03-23T00:55:54;96734.88;;;13.89;68.70
15932;BME280;8065;49.520;11.284;2024-03-23T00:58:19;96730.28;;;13.89;68.79
15932;BME280;8065;49.520;11.284;2024-03-23T01:00:45;96728.66;;;13.81;68.94
15932;BME280;8065;49.520;11.284;2024-03-23T01:03:11;96720.28;;;13.60;69.98
15932;BME280;8065;49.520;11.284;2024-03-23T01:05:37;96714.44;;;13.31;70.96
15932;BME280;8065;49.520;11.284;2024-03-23T01:08:03;96705.59;;;13.08;71.68
15932;BME280;8065;49.520;11.284;2024-03-23T01:10:31;96708.88;;;12.78;72.76
15932;BME280;8065;49.520;11.284;2024-03-23T01:12:57;96712.59;;;12.93;72.21
15932;BME280;8065;49.520;11.284;2024-03-23T01:15:23;96697.78;;;12.76;73.16
15932;BME280;8065;49.520;11.284;2024-03-23T01:17:48;96698.97;;;12.79;72.74
15932;BME280;8065;49.520;11.284;2024-03-23T01:20:14;96698.19;;;12.78;72.78
15932;BME280;8065;49.520;11.284;2024-03-23T01:22:40;96692.72;;;12.91;72.21
15932;BME280;8065;49.520;11.284;2024-03-23T01:25:06;96688.66;;;12.77;72.56
15932;BME280;8065;49.520;11.284;2024-03-23T01:27:34;96688.38;;;12.63;72.77
15932;BME280;8065;49.520;11.284;2024-03-23T01:30:00;96688.44;;;12.67;72.97
15932;BME280;8065;49.520;11.284;2024-03-23T01:32:26;96688.16;;;12.53;73.57
15932;BME280;8065;49.520;11.284;2024-03-23T01:34:51;96676.81;;;12.21;75.00
15932;BME280;8065;49.520;11.284;2024-03-23T01:37:17;96677.03;;;12.31;74.62
15932;BME280;8065;49.520;11.284;2024-03-23T01:39:43;96674.88;;;12.37;74.45
15932;BME280;8065;49.520;11.284;2024-03-23T01:42:08;96680.75;;;12.27;75.19
15932;BME280;8065;49.520;11.284;2024-03-23T01:44:37;96679.78;;;12.35;75.11
15932;BME280;8065;49.520;11.284;2024-03-23T01:47:03;96671.38;;;12.52;74.40
15932;BME280;8065;49.520;11.284;2024-03-23T01:49:29;96669.16;;;12.54;74.30
15932;BME280;8065;49.520;11.284;2024-03-23T01:51:55;96667.47;;;12.46;74.96
15932;BME280;8065;49.520;11.284;2024-03-23T01:54:21;96665.16;;;12.64;74.39
15932;BME280;8065;49.520;11.284;2024-03-23T01:56:48;96669.09;;;12.70;74.17
15932;BME280;8065;49.520;11.284;2024-03-23T01:59:14;96663.25;;;12.64;74.91
15932;BME280;8065;49.520;11.284;2024-03-23T02:01:43;96653.72;;;12.44;75.43
15932;BME280;8065;49.520;11.284;2024-03-23T02:04:08;96651.22;;;12.16;76.44
15932;BME280;8065;49.520;11.284;2024-03-23T02:06:34;96644.84;;;12.21;76.71
15932;BME280;8065;49.520;11.284;2024-03-23T02:09:00;96643.72;;;12.22;76.38
15932;BME280;8065;49.520;11.284;2024-03-23T02:11:26;96638.97;;;12.31;75.91
15932;BME280;8065;49.520;11.284;2024-03-23T02:13:52;96631.00;;;12.50;75.32
15932;BME280;8065;49.520;11.284;2024-03-23T02:16:17;96633.53;;;12.62;74.84
15932;BME280;8065;49.520;11.284;2024-03-23T02:18:46;96626.09;;;12.52;75.28
15932;BME280;8065;49.520;11.284;2024-03-23T02:21:11;96617.38;;;12.36;76.07
15932;BME280;8065;49.520;11.284;2024-03-23T02:23:40;96615.56;;;12.40;75.99
15932;BME280;8065;49.520;11.284;2024-03-23T02:26:05;96611.63;;;12.34;76.41
15932;BME280;8065;49.520;11.284;2024-03-23T02:28:31;96610.25;;;12.40;76.22
15932;BME280;8065;49.520;11.284;2024-03-23T02:30:57;96613.31;;;12.42;75.94
15932;BME280;8065;49.520;11.284;2024-03-23T02:33:22;96604.22;;;12.43;75.57
15932;BME280;8065;49.520;11.284;2024-03-23T02:35:49;96605.63;;;12.56;75.13
15932;BME280;8065;49.520;11.284;2024-03-23T02:38:14;96585.41;;;12.55;75.62
15932;BME280;8065;49.520;11.284;2024-03-23T02:40:43;96580.38;;;12.50;75.61
15932;BME280;8065;49.520;11.284;2024-03-23T02:43:08;96575.88;;;12.35;76.14
15932;BME280;8065;49.520;11.284;2024-03-23T02:45:34;96575.03;;;12.31;76.32
15932;BME280;8065;49.520;11.284;2024-03-23T02:48:00;96572.59;;;12.22;76.16
15932;BME280;8065;49.520;11.284;2024-03-23T02:50:25;96567.03;;;12.50;75.38
15932;BME280;8065;49.520;11.284;2024-03-23T02:52:51;96564.09;;;12.55;75.13
15932;BME280;8065;49.520;11.284;2024-03-23T02:55:17;96553.56;;;12.62;75.07
15932;BME280;8065;49.520;11.284;2024-03-23T02:57:45;96557.06;;;12.66;75.18
15932;BME280;8065;49.520;11.284;2024-03-23T03:00:12;96554.53;;;12.73;75.40
15932;BME280;8065;49.520;11.284;2024-03-23T03:02:37;96559.28;;;12.84;74.93
15932;BME280;8065;49.520;11.284;2024-03-23T03:05:04;96544.75;;;12.81;74.83
15932;BME280;8065;49.520;11.284;2024-03-23T03:07:30;96542.38;;;12.76;75.27
15932;BME280;8065;49.520;11.284;2024-03-23T03:09:56;96535.44;;;12.71;75.43
15932;BME280;8065;49.520;11.284;2024-03-23T03:12:21;96534.09;;;12.81;75.17
15932;BME280;8065;49.520;11.284;2024-03-23T03:14:50;96529.81;;;12.76;75.57
15932;BME280;8065;49.520;11.284;2024-03-23T03:17:15;96523.25;;;12.70;76.08
15932;BME280;8065;49.520;11.284;2024-03-23T03:19:41;96511.94;;;12.77;76.06
15932;BME280;8065;49.520;11.284;2024-03-23T03:22:07;96517.03;;;12.86;75.83
15932;BME280;8065;49.520;11.284;2024-03-23T03:24:33;96508.38;;;12.92;75.78
15932;BME280;8065;49.520;11.284;2024-03-23T03:26:58;96504.53;;;12.90;75.79
15932;BME280;8065;49.520;11.284;2024-03-23T03:29:24;96501.44;;;12.88;75.74
15932;BME280;8065;49.520;11.284;2024-03-23T03:31:52;96496.25;;;12.95;75.68
15932;BME280;8065;49.520;11.284;2024-03-23T03:34:18;96502.47;;;13.06;75.43
15932;BME280;8065;49.520;11.284;2024-03-23T03:36:44;96516.34;;;13.15;75.17
15932;BME280;8065;49.520;11.284;2024-03-23T03:39:09;96502.03;;;13.23;74.41
15932;BME280;8065;49.520;11.284;2024-03-23T03:41:35;96494.94;;;13.34;73.79
15932;BME280;8065;49.520;11.284;2024-03-23T03:44:01;96472.81;;;13.34;74.69
15932;BME280;8065;49.520;11.284;2024-03-23T03:46:27;96472.56;;;13.42;75.12
15932;BME280;8065;49.520;11.284;2024-03-23T03:48:55;96467.50;;;13.34;76.33
15932;BME280;8065;49.520;11.284;2024-03-23T03:51:21;96464.78;;;13.30;76.21
15932;BME280;8065;49.520;11.284;2024-03-23T03:53:47;96468.66;;;13.36;75.75
15932;BME280;8065;49.520;11.284;2024-03-23T03:56:12;96465.59;;;13.34;76.14
15932;BME280;8065;49.520;11.284;2024-03-23T03:58:38;96460.72;;;13.40;76.16
15932;BME280;8065;49.520;11.284;2024-03-23T04:01:04;96455.72;;;13.38;75.92
15932;BME280;8065;49.520;11.284;2024-03-23T04:03:30;96451.03;;;13.28;77.36
15932;BME280;8065;49.520;11.284;2024-03-23T04:05:59;96440.34;;;13.28;77.29
15932;BME280;8065;49.520;11.284;2024-03-23T04:08:24;96431.72;;;13.12;78.71
15932;BME280;8065;49.520;11.284;2024-03-23T04:10:50;96414.25;;;12.88;79.75
15932;BME280;8065;49.520;11.284;2024-03-23T04:13:16;96402.03;;;12.87;79.98
15932;BME280;8065;49.520;11.284;2024-03-23T04:15:42;96393.16;;;12.79;79.90
15932;BME280;8065;49.520;11.284;2024-03-23T04:18:08;96396.03;;;12.67;80.92
15932;BME280;8065;49.520;11.284;2024-03-23T04:20:34;96395.38;;;12.74;80.57
15932;BME280;8065;49.520;11.284;2024-03-23T04:23:02;96395.78;;;12.53;80.61
15932;BME280;8065;49.520;11.284;2024-03-23T04:25:28;96388.53;;;12.76;79.35
15932;BME280;8065;49.520;11.284;2024-03-23T04:27:54;96400.69;;;12.74;79.07
15932;BME280;8065;49.520;11.284;2024-03-23T04:30:19;96397.13;;;12.89;77.20
15932;BME280;8065;49.520;11.284;2024-03-23T04:32:45;96400.38;;;13.05;75.65
15932;BME280;8065;49.520;11.284;2024-03-23T04:35:11;96384.53;;;13.16;73.61
15932;BME280;8065;49.520;11.284;2024-03-23T04:37:37;96391.59;;;13.31;73.36
15932;BME280;8065;49.520;11.284;2024-03-23T04:40:06;96395.59;;;13.44;72.92
15932;BME280;8065;49.520;11.284;2024-03-23T04:42:33;96398.03;;;13.57;72.27
15932;BME280;8065;49.520;11.284;2024-03-23T04:44:59;96391.97;;;13.60;71.93
15932;BME280;8065;49.520;11.284;2024-03-23T04:47:24;96384.41;;;13.65;71.88
15932;BME280;8065;49.520;11.284;2024-03-23T04:49:50;96383.72;;;13.72;71.69
15932;BME280;8065;49.520;11.284;2024-03-23T04:52:16;96392.25;;;13.85;70.96
15932;BME280;8065;49.520;11.284;2024-03-23T04:54:42;96395.31;;;13.90;71.15
15932;BME280;8065;49.520;11.284;2024-03-23T04:57:11;96386.91;;;13.88;70.96
15932;BME280;8065;49.520;11.284;2024-03-23T04:59:37;96379.25;;;13.83;70.66
15932;BME280;8065;49.520;11.284;2024-03-23T05:02:02;96379.25;;;13.83;70.56
15932;BME280;8065;49.520;11.284;2024-03-23T05:04:28;96370.97;;;13.95;70.57
15932;BME280;8065;49.520;11.284;2024-03-23T05:06:54;96348.06;;;13.94;70.57
15932;BME280;8065;49.520;11.284;2024-03-23T05:09:19;96360.56;;;13.87;70.32
15932;BME280;8065;49.520;11.284;2024-03-23T05:11:45;96370.16;;;13.91;70.26
15932;BME280;8065;49.520;11.284;2024-03-23T05:14:14;96366.81;;;14.01;70.01
15932;BME280;8065;49.520;11.284;2024-03-23T05:16:40;96364.22;;;14.08;69.53
15932;BME280;8065;49.520;11.284;2024-03-23T05:19:06;96368.09;;;14.15;69.64
15932;BME280;8065;49.520;11.284;2024-03-23T05:21:32;96373.50;;;14.22;69.31
15932;BME280;8065;49.520;11.284;2024-03-23T05:23:57;96367.34;;;14.18;69.51
15932;BME280;8065;49.520;11.284;2024-03-23T05:26:23;96370.44;;;14.20;69.26
15932;BME280;8065;49.520;11.284;2024-03-23T05:28:49;96361.28;;;14.21;69.26
15932;BME280;8065;49.520;11.284;2024-03-23T05:31:25;96360.59;;;14.31;69.18
15932;BME280;8065;49.520;11.284;2024-03-23T05:33:51;96350.66;;;14.28;68.92
15932;BME280;8065;49.520;11.284;2024-03-23T05:36:17;96340.38;;;14.30;69.11
15932;BME280;8065;49.520;11.284;2024-03-23T05:38:43;96329.38;;;14.38;68.74
15932;BME280;8065;49.520;11.284;2024-03-23T05:41:08;96333.16;;;14.34;68.99
15932;BME280;8065;49.520;11.284;2024-03-23T05:43:34;96331.72;;;14.43;69.02
15932;BME280;8065;49.520;11.284;2024-03-23T05:46:00;96330.19;;;14.42;68.84
15932;BME280;8065;49.520;11.284;2024-03-23T05:48:30;96327.16;;;14.44;69.19
15932;BME280;8065;49.520;11.284;2024-03-23T05:50:56;96327.84;;;14.41;69.47
15932;BME280;8065;49.520;11.284;2024-03-23T05:53:21;96335.84;;;14.37;69.32
15932;BME280;8065;49.520;11.284;2024-03-23T05:55:47;96321.13;;;14.54;69.10
15932;BME280;8065;49.520;11.284;2024-03-23T05:58:15;96328.03;;;14.62;68.65
15932;BME280;8065;49.520;11.284;2024-03-23T06:00:40;96330.78;;;14.73;68.50
15932;BME280;8065;49.520;11.284;2024-03-23T06:03:07;96325.84;;;14.79;68.49
15932;BME280;8065;49.520;11.284;2024-03-23T06:05:36;96328.91;;;14.81;68.36
15932;BME280;8065;49.520;11.284;2024-03-23T06:08:02;96323.53;;;14.81;68.64
15932;BME280;8065;49.520;11.284;2024-03-23T06:10:27;96319.75;;;14.85;68.61
15932;BME280;8065;49.520;11.284;2024-03-23T06:12:53;96321.31;;;14.90;68.38
15932;BME280;8065;49.520;11.284;2024-03-23T06:15:19;96322.06;;;14.87;68.24
15932;BME280;8065;49.520;11.284;2024-03-23T06:17:46;96315.91;;;14.83;68.33
15932;BME280;8065;49.520;11.284;2024-03-23T06:20:12;96317.84;;;14.86;68.59
15932;BME280;8065;49.520;11.284;2024-03-23T06:22:40;96328.03;;;14.59;69.16
15932;BME280;8065;49.520;11.284;2024-03-23T06:25:07;96332.66;;;14.69;69.52
15932;BME280;8065;49.520;11.284;2024-03-23T06:27:33;96337.28;;;14.79;69.34
15932;BME280;8065;49.520;11.284;2024-03-23T06:29:59;96343.19;;;14.44;72.43
15932;BME280;8065;49.520;11.284;2024-03-23T06:32:24;96352.84;;;14.59;72.63
15932;BME280;8065;49.520;11.284;2024-03-23T06:34:50;96349.78;;;14.57;73.59
15932;BME280;8065;49.520;11.284;2024-03-23T06:37:16;96339.09;;;14.61;73.68
15932;BME280;8065;49.520;11.284;2024-03-23T06:39:46;96336.63;;;14.38;75.68
15932;BME280;8065;49.520;11.284;2024-03-23T06:42:11;96332.53;;;14.48;75.13
15932;BME280;8065;49.520;11.284;2024-03-23T06:44:37;96345.03;;;14.40;76.05
15932;BME280;8065;49.520;11.284;2024-03-23T06:47:03;96351.44;;;14.28;76.97
15932;BME280;8065;49.520;11.284;2024-03-23T06:49:29;96352.25;;;14.36;76.43
15932;BME280;8065;49.520;11.284;2024-03-23T06:51:55;96344.22;;;14.36;76.78
15932;BME280;8065;49.520;11.284;2024-03-23T06:54:20;96346.84;;;14.29;76.92
15932;BME280;8065;49.520;11.284;2024-03-23T06:56:49;96339.25;;;14.34;77.00
15932;BME280;8065;49.520;11.284;2024-03-23T06:59:14;96330.81;;;14.29;76.62
15932;BME280;8065;49.520;11.284;2024-03-23T07:01:40;96318.63;;;14.31;76.81
15932;BME280;8065;49.520;11.284;2024-03-23T07:04:06;96327.47;;;14.39;76.28
15932;BME280;8065;49.520;11.284;2024-03-23T07:06:32;96351.47;;;14.32;75.86
15932;BME280;8065;49.520;11.284;2024-03-23T07:08:57;96346.16;;;14.39;75.75
15932;BME280;8065;49.520;11.284;2024-03-23T07:11:23;96339.16;;;14.24;75.77
15932;BME280;8065;49.520;11.284;2024-03-23T07:13:52;96347.03;;;14.47;75.00
15932;BME280;8065;49.520;11.284;2024-03-23T07:16:19;96343.56;;;14.42;75.16
15932;BME280;8065;49.520;11.284;2024-03-23T07:18:44;96361.53;;;14.46;75.28
15932;BME280;8065;49.520;11.284;2024-03-23T07:21:10;96351.56;;;14.42;75.20
15932;BME280;8065;49.520;11.284;2024-03-23T07:23:36;96345.56;;;14.56;74.97
15932;BME280;8065;49.520;11.284;2024-03-23T07:26:03;96349.97;;;14.38;75.23
15932;BME280;8065;49.520;11.284;2024-03-23T07:28:29;96361.25;;;14.17;75.87
15932;BME280;8065;49.520;11.284;2024-03-23T07:31:08;96368.94;;;14.22;75.18
15932;BME280;8065;49.520;11.284;2024-03-23T07:33:35;96359.75;;;14.20;75.25
15932;BME280;8065;49.520;11.284;2024-03-23T07:36:02;96346.88;;;14.32;74.92
15932;BME280;8065;49.520;11.284;2024-03-23T07:38:28;96368.63;;;14.31;75.07
15932;BME280;8065;49.520;11.284;2024-03-23T07:41:02;96382.16;;;14.49;74.09
15932;BME280;8065;49.520;11.284;2024-03-23T07:43:28;96367.91;;;14.37;74.28
15932;BME280;8065;49.520;11.284;2024-03-23T07:45:54;96358.66;;;14.24;73.78
15932;BME280;8065;49.520;11.284;2024-03-23T07:48:23;96370.56;;;14.34;73.88
15932;BME280;8065;49.520;11.284;2024-03-23T07:50:57;96379.66;;;14.26;74.67
15932;BME280;8065;49.520;11.284;2024-03-23T07:53:22;96382.00;;;14.31;74.31
15932;BME280;8065;49.520;11.284;2024-03-23T07:55:53;96394.22;;;14.32;74.97
15932;BME280;8065;49.520;11.284;2024-03-23T07:58:19;96394.88;;;14.22;75.39
15932;BME280;8065;49.520;11.284;2024-03-23T08:00:45;96404.91;;;14.32;75.64
15932;BME280;8065;49.520;11.284;2024-03-23T08:03:11;96411.06;;;14.36;75.41
15932;BME280;8065;49.520;11.284;2024-03-23T08:05:39;96404.16;;;14.35;75.89
15932;BME280;8065;49.520;11.284;2024-03-23T08:08:05;96405.28;;;14.30;75.90
15932;BME280;8065;49.520;11.284;2024-03-23T08:10:31;96409.84;;;14.30;75.93
15932;BME280;8065;49.520;11.284;2024-03-23T08:12:57;96407.91;;;14.27;76.11
15932;BME280;8065;49.520;11.284;2024-03-23T08:15:23;96411.81;;;14.36;75.63
15932;BME280;8065;49.520;11.284;2024-03-23T08:17:49;96409.66;;;14.49;75.33
15932;BME280;8065;49.520;11.284;2024-03-23T08:20:15;96410.41;;;14.46;75.52
15932;BME280;8065;49.520;11.284;2024-03-23T08:22:43;96439.47;;;14.51;75.42
15932;BME280;8065;49.520;11.284;2024-03-23T08:25:09;96441.69;;;14.42;76.62
15932;BME280;8065;49.520;11.284;2024-03-23T08:27:34;96452.28;;;14.35;77.49
15932;BME280;8065;49.520;11.284;2024-03-23T08:30:00;96459.59;;;14.04;78.09
15932;BME280;8065;49.520;11.284;2024-03-23T08:32:26;96467.50;;;13.97;79.06
15932;BME280;8065;49.520;11.284;2024-03-23T08:34:51;96481.72;;;14.05;79.06
15932;BME280;8065;49.520;11.284;2024-03-23T08:37:17;96501.38;;;13.86;80.51
15932;BME280;8065;49.520;11.284;2024-03-23T08:39:45;96517.06;;;13.61;81.12
15932;BME280;8065;49.520;11.284;2024-03-23T08:42:11;96523.31;;;13.46;80.20
15932;BME280;8065;49.520;11.284;2024-03-23T08:44:37;96521.22;;;13.32;80.08
15932;BME280;8065;49.520;11.284;2024-03-23T08:47:03;96533.06;;;13.12;78.38
15932;BME280;8065;49.520;11.284;2024-03-23T08:49:28;96549.25;;;13.23;78.29
15932;BME280;8065;49.520;11.284;2024-03-23T08:51:54;96553.69;;;13.38;78.54
15932;BME280;8065;49.520;11.284;2024-03-23T08:54:20;96567.22;;;13.49;79.21
15932;BME280;8065;49.520;11.284;2024-03-23T08:56:48;96570.50;;;13.65;78.54
15932;BME280;8065;49.520;11.284;2024-03-23T08:59:14;96580.81;;;13.96;77.69
15932;BME280;8065;49.520;11.284;2024-03-23T09:01:39;96592.91;;;13.87;76.35
15932;BME280;8065;49.520;11.284;2024-03-23T09:04:05;96586.31;;;13.51;76.15
15932;BME280;8065;49.520;11.284;2024-03-23T09:06:31;96581.00;;;13.54;75.41
15932;BME280;8065;49.520;11.284;2024-03-23T09:08:57;96598.88;;;13.50;76.94
15932;BME280;8065;49.520;11.284;2024-03-23T09:11:22;96612.94;;;13.47;74.71
15932;BME280;8065;49.520;11.284;2024-03-23T09:13:51;96625.34;;;13.36;74.72
15932;BME280;8065;49.520;11.284;2024-03-23T09:16:16;96629.72;;;13.05;74.47
15932;BME280;8065;49.520;11.284;2024-03-23T09:18:42;96642.34;;;12.86;75.49
15932;BME280;8065;49.520;11.284;2024-03-23T09:21:11;96652.88;;;12.78;75.59
15932;BME280;8065;49.520;11.284;2024-03-23T09:23:38;96662.34;;;12.76;76.49
15932;BME280;8065;49.520;11.284;2024-03-23T09:26:04;96668.88;;;12.78;76.32
15932;BME280;8065;49.520;11.284;2024-03-23T09:28:29;96671.31;;;12.48;74.01
15932;BME280;8065;49.520;11.284;2024-03-23T09:31:02;96671.88;;;12.58;72.70
15932;BME280;8065;49.520;11.284;2024-03-23T09:33:27;96675.31;;;12.97;71.50
15932;BME280;8065;49.520;11.284;2024-03-23T09:35:54;96690.34;;;13.70;69.86
15932;BME280;8065;49.520;11.284;2024-03-23T09:38:20;96674.00;;;13.75;68.44
15932;BME280;8065;49.520;11.284;2024-03-23T09:40:48;96664.63;;;14.41;67.38
15932;BME280;8065;49.520;11.284;2024-03-23T09:43:15;96669.19;;;15.00;65.25
15932;BME280;8065;49.520;11.284;2024-03-23T09:45:41;96665.69;;;15.33;65.38
15932;BME280;8065;49.520;11.284;2024-03-23T09:48:11;96680.34;;;14.72;63.78
15932;BME280;8065;49.520;11.284;2024-03-23T09:50:37;96694.09;;;14.74;65.43
15932;BME280;8065;49.520;11.284;2024-03-23T09:53:04;96704.44;;;14.46;65.33
15932;BME280;8065;49.520;11.284;2024-03-23T09:55:29;96711.94;;;14.37;65.13
15932;BME280;8065;49.520;11.284;2024-03-23T09:57:55;96708.66;;;14.21;65.45
15932;BME280;8065;49.520;11.284;2024-03-23T10:00:21;96700.25;;;13.96;62.71
15932;BME280;8065;49.520;11.284;2024-03-23T10:02:47;96715.81;;;13.90;63.37
15932;BME280;8065;49.520;11.284;2024-03-23T10:05:22;96710.22;;;13.72;61.40
15932;BME280;8065;49.520;11.284;2024-03-23T10:07:49;96712.41;;;13.67;60.83
15932;BME280;8065;49.520;11.284;2024-03-23T10:10:16;96712.09;;;13.72;61.04
15932;BME280;8065;49.520;11.284;2024-03-23T10:12:44;96727.19;;;13.61;61.51
15932;BME280;8065;49.520;11.284;2024-03-23T10:15:15;96739.63;;;13.53;62.66
15932;BME280;8065;49.520;11.284;2024-03-23T10:17:43;96745.38;;;13.55;62.02
15932;BME280;8065;49.520;11.284;2024-03-23T10:20:10;96727.78;;;13.31;61.07
15932;BME280;8065;49.520;11.284;2024-03-23T10:22:39;96738.69;;;13.23;61.60
15932;BME280;8065;49.520;11.284;2024-03-23T10:25:09;96740.34;;;13.11;61.14
15932;BME280;8065;49.520;11.284;2024-03-23T10:27:35;96746.25;;;13.40;60.88
15932;BME280;8065;49.520;11.284;2024-03-23T10:30:08;96743.25;;;13.22;61.97
15932;BME280;8065;49.520;11.284;2024-03-23T10:32:34;96754.47;;;13.12;61.55
15932;BME280;8065;49.520;11.284;2024-03-23T10:35:14;96756.44;;;12.96;60.72
15932;BME280;8065;49.520;11.284;2024-03-23T10:37:42;96769.19;;;13.06;60.52
15932;BME280;8065;49.520;11.284;2024-03-23T10:40:11;96778.19;;;12.98;61.31
15932;BME280;8065;49.520;11.284;2024-03-23T10:42:37;96787.03;;;13.02;60.21
15932;BME280;8065;49.520;11.284;2024-03-23T10:45:05;96791.38;;;12.91;60.15
15932;BME280;8065;49.520;11.284;2024-03-23T10:47:31;96810.06;;;12.91;60.33
15932;BME280;8065;49.520;11.284;2024-03-23T10:49:57;96794.63;;;13.19;60.63
15932;BME280;8065;49.520;11.284;2024-03-23T10:52:23;96785.19;;;13.06;59.66
15932;BME280;8065;49.520;11.284;2024-03-23T10:54:52;96767.72;;;13.47;59.01
15932;BME280;8065;49.520;11.284;2024-03-23T10:57:21;96749.78;;;13.67;58.20
15932;BME280;8065;49.520;11.284;2024-03-23T10:59:49;96766.03;;;13.81;58.84
15932;BME280;8065;49.520;11.284;2024-03-23T11:02:19;96789.34;;;14.07;58.46
15932;BME280;8065;49.520;11.284;2024-03-23T11:04:45;96799.72;;;14.35;57.97
15932;BME280;8065;49.520;11.284;2024-03-23T11:07:31;96799.00;;;14.38;57.84
15932;BME280;8065;49.520;11.284;2024-03-23T11:10:00;96788.81;;;14.21;56.43
15932;BME280;8065;49.520;11.284;2024-03-23T11:12:32;96761.88;;;14.33;57.23
15932;BME280;8065;49.520;11.284;2024-03-23T11:15:00;96771.84;;;14.09;56.50
15932;BME280;8065;49.520;11.284;2024-03-23T11:17:27;96772.66;;;14.14;57.35
15932;BME280;8065;49.520;11.284;2024-03-23T11:19:53;96765.44;;;13.91;55.43
15932;BME280;8065;49.520;11.284;2024-03-23T11:22:37;96779.41;;;13.81;55.46
15932;BME280;8065;49.520;11.284;2024-03-23T11:25:12;96789.00;;;13.63;56.22
15932;BME280;8065;49.520;11.284;2024-03-23T11:27:38;96785.13;;;13.60;56.68
15932;BME280;8065;49.520;11.284;2024-03-23T11:30:12;96777.44;;;13.78;55.79
15932;BME280;8065;49.520;11.284;2024-03-23T11:32:38;96777.03;;;13.76;57.59
15932;BME280;8065;49.520;11.284;2024-03-23T11:35:05;96785.22;;;14.36;55.78
15932;BME280;8065;49.520;11.284;2024-03-23T11:37:32;96775.59;;;14.54;55.98
15932;BME280;8065;49.520;11.284;2024-03-23T11:39:57;96777.41;;;14.24;55.55
15932;BME280;8065;49.520;11.284;2024-03-23T11:42:26;96787.38;;;14.80;54.85
15932;BME280;8065;49.520;11.284;2024-03-23T11:44:51;96782.50;;;14.55;55.34
15932;BME280;8065;49.520;11.284;2024-03-23T11:47:17;96799.38;;;14.14;55.83
15932;BME280;8065;49.520;11.284;2024-03-23T11:49:43;96793.25;;;14.59;55.15
15932;BME280;8065;49.520;11.284;2024-03-23T11:52:08;96797.97;;;15.29;53.22
15932;BME280;8065;49.520;11.284;2024-03-23T11:54:34;96799.59;;;15.74;52.27
15932;BME280;8065;49.520;11.284;2024-03-23T11:57:01;96809.34;;;15.93;51.32
15932;BME280;8065;49.520;11.284;2024-03-23T11:59:35;96808.09;;;16.24;51.99
15932;BME280;8065;49.520;11.284;2024-03-23T12:02:05;96800.63;;;15.62;51.21
15932;BME280;8065;49.520;11.284;2024-03-23T12:04:31;96816.41;;;15.37;51.25
15932;BME280;8065;49.520;11.284;2024-03-23T12:07:11;96815.28;;;15.08;51.24
15932;BME280;8065;49.520;11.284;2024-03-23T12:09:37;96815.63;;;14.77;52.13
15932;BME280;8065;49.520;11.284;2024-03-23T12:12:11;96817.19;;;14.29;53.43
15932;BME280;8065;49.520;11.284;2024-03-23T12:14:41;96821.75;;;14.05;53.96
15932;BME280;8065;49.520;11.284;2024-03-23T12:17:09;96823.31;;;14.29;54.29
15932;BME280;8065;49.520;11.284;2024-03-23T12:19:35;96816.19;;;14.90;53.14
15932;BME280;8065;49.520;11.284;2024-03-23T12:22:00;96816.56;;;15.18;53.10
15932;BME280;8065;49.520;11.284;2024-03-23T12:24:28;96810.88;;;15.23;50.71
15932;BME280;8065;49.520;11.284;2024-03-23T12:26:53;96806.03;;;15.02;52.25
15932;BME280;8065;49.520;11.284;2024-03-23T12:29:19;96800.19;;;15.23;51.27
15932;BME280;8065;49.520;11.284;2024-03-23T12:31:47;96802.84;;;15.23;52.08
15932;BME280;8065;49.520;11.284;2024-03-23T12:34:13;96802.41;;;15.18;51.12
15932;BME280;8065;49.520;11.284;2024-03-23T12:36:39;96785.69;;;15.58;48.37
15932;BME280;8065;49.520;11.284;2024-03-23T12:39:04;96780.91;;;15.81;48.13
15932;BME280;8065;49.520;11.284;2024-03-23T12:41:30;96784.97;;;16.05;46.67
15932;BME280;8065;49.520;11.284;2024-03-23T12:43:56;96779.38;;;15.80;46.71
15932;BME280;8065;49.520;11.284;2024-03-23T12:46:21;96766.25;;;15.68;46.24
15932;BME280;8065;49.520;11.284;2024-03-23T12:48:50;96771.75;;;15.82;45.23
15932;BME280;8065;49.520;11.284;2024-03-23T12:51:16;96766.72;;;15.77;45.96
15932;BME280;8065;49.520;11.284;2024-03-23T12:53:41;96768.25;;;15.78;47.51
15932;BME280;8065;49.520;11.284;2024-03-23T12:56:11;96766.84;;;15.51;47.03
15932;BME280;8065;49.520;11.284;2024-03-23T12:58:37;96758.06;;;15.94;46.12
15932;BME280;8065;49.520;11.284;2024-03-23T13:01:03;96762.69;;;15.97;45.50
15932;BME280;8065;49.520;11.284;2024-03-23T13:03:29;96761.63;;;15.65;43.30
15932;BME280;8065;49.520;11.284;2024-03-23T13:05:57;96764.91;;;15.48;42.81
15932;BME280;8065;49.520;11.284;2024-03-23T13:08:23;96770.22;;;15.44;42.56
15932;BME280;8065;49.520;11.284;2024-03-23T13:10:51;96773.06;;;14.95;44.07
15932;BME280;8065;49.520;11.284;2024-03-23T13:13:17;96769.63;;;14.94;44.59
15932;BME280;8065;49.520;11.284;2024-03-23T13:15:49;96774.88;;;15.17;45.40
15932;BME280;8065;49.520;11.284;2024-03-23T13:18:15;96775.44;;;15.00;43.99
15932;BME280;8065;49.520;11.284;2024-03-23T13:20:40;96783.78;;;14.95;44.04
15932;BME280;8065;49.520;11.284;2024-03-23T13:23:09;96775.69;;;15.21;44.06
15932;BME280;8065;49.520;11.284;2024-03-23T13:25:34;96774.47;;;15.49;44.38
15932;BME280;8065;49.520;11.284;2024-03-23T13:28:00;96759.16;;;15.86;44.45
15932;BME280;8065;49.520;11.284;2024-03-23T13:30:26;96764.00;;;16.18;44.37
15932;BME280;8065;49.520;11.284;2024-03-23T13:32:52;96761.84;;;15.86;44.61
15932;BME280;8065;49.520;11.284;2024-03-23T13:35:17;96759.56;;;15.88;43.97
15932;BME280;8065;49.520;11.284;2024-03-23T13:37:43;96754.28;;;15.99;44.37
15932;BME280;8065;49.520;11.284;2024-03-23T13:40:12;96761.16;;;15.96;43.66
15932;BME280;8065;49.520;11.284;2024-03-23T13:42:38;96769.72;;;16.13;43.10
15932;BME280;8065;49.520;11.284;2024-03-23T13:45:04;96759.69;;;16.02;43.12
15932;BME280;8065;49.520;11.284;2024-03-23T13:47:30;96776.50;;;15.99;42.77
15932;BME280;8065;49.520;11.284;2024-03-23T13:49:56;96770.44;;;16.10;42.12